Time;durP1;ratioP1;P1;durP2;ratioP2;P2;SDS_P1;SDS_P2;PMS_P1;PMS_P2;Temp;Humidity;BMP_temperature;BMP_pressure;BME280_temperature;BME280_humidity;BME280_pressure;Samples;Min_cycle;Max_cycle;Signal;HPM_P1;HPM_P2
2023/05/20 00:00:26;;;;;;;;;;;13.80;99.90;;;;;;5032266;28;19945;-37
2023/05/20 00:02:51;;;;;;;;;;;13.80;99.90;;;;;;5032367;28;20390;-39
2023/05/20 00:05:17;;;;;;;;;;;13.80;99.90;;;;;;5032280;28;19995;-40
2023/05/20 00:07:42;;;;;;;;;;;13.80;99.90;;;;;;5031836;28;19928;-41
2023/05/20 00:10:08;;;;;;;;;;;13.80;99.90;;;;;;5032056;28;19954;-39
2023/05/20 00:12:34;;;;;;;;;;;13.80;99.90;;;;;;5032267;28;20008;-40
2023/05/20 00:15:00;;;;;;;;;;;13.80;99.90;;;;;;5032225;28;20362;-40
2023/05/20 00:17:27;;;;;;;;;;;13.80;99.90;;;;;;5031543;28;20362;-38
2023/05/20 00:19:52;;;;;;;;;;;13.80;99.90;;;;;;5032129;28;19905;-40
2023/05/20 00:22:18;;;;;;;;;;;13.80;99.90;;;;;;5031871;28;20043;-39
2023/05/20 00:24:44;;;;;;;;;;;13.80;99.90;;;;;;5031866;28;20007;-38
2023/05/20 00:27:09;;;;;;;;;;;13.80;99.90;;;;;;5031405;28;19905;-38
2023/05/20 00:29:35;;;;;;;;;;;13.80;99.90;;;;;;5031903;28;20393;-39
2023/05/20 00:32:00;;;;;;;;;;;13.80;99.90;;;;;;5031758;28;19909;-40
2023/05/20 00:34:26;;;;;;;;;;;13.80;99.90;;;;;;5031901;28;19958;-39
2023/05/20 00:36:51;;;;;;;;;;;13.80;99.90;;;;;;5031234;28;20332;-40
2023/05/20 00:39:17;;;;;;;;;;;13.80;99.90;;;;;;5031766;28;20207;-39
2023/05/20 00:41:42;;;;;;;;;;;13.80;99.90;;;;;;5031487;28;19948;-39
2023/05/20 00:44:08;;;;;;;;;;;13.80;99.90;;;;;;5031783;28;20586;-39
2023/05/20 00:46:34;;;;;;;;;;;13.70;99.90;;;;;;5031258;28;19905;-42
2023/05/20 00:49:00;;;;;;;;;;;13.80;99.90;;;;;;5031687;28;20000;-40
2023/05/20 00:51:25;;;;;;;;;;;13.80;99.90;;;;;;5031546;28;19905;-39
2023/05/20 00:53:51;;;;;;;;;;;13.80;99.90;;;;;;5031398;28;20354;-38
2023/05/20 00:56:17;;;;;;;;;;;13.80;99.90;;;;;;5031301;28;19909;-40
2023/05/20 00:58:43;;;;;;;;;;;13.80;99.90;;;;;;5031482;28;20009;-39
2023/05/20 01:01:08;;;;;;;;;;;13.70;99.90;;;;;;5031603;28;19936;-40
2023/05/20 01:03:34;;;;;;;;;;;13.80;99.90;;;;;;5031989;28;19995;-39
2023/05/20 01:06:00;;;;;;;;;;;13.80;99.90;;;;;;5031064;28;19909;-38
2023/05/20 01:08:27;;;;;;;;;;;13.80;99.90;;;;;;5031359;28;20351;-40
2023/05/20 01:11:04;;;;;;;;;;;13.80;99.90;;;;;;5031424;28;19905;-39
2023/05/20 01:13:32;;;;;;;;;;;13.80;99.90;;;;;;5031595;28;19905;-38
2023/05/20 01:15:59;;;;;;;;;;;13.80;99.90;;;;;;5031006;28;19905;-39
2023/05/20 01:18:28;;;;;;;;;;;13.80;99.90;;;;;;5031451;28;19909;-39
2023/05/20 01:21:00;;;;;;;;;;;13.80;99.90;;;;;;5031337;28;20315;-39
2023/05/20 01:23:32;;;;;;;;;;;13.80;99.90;;;;;;5031447;28;20307;-39
2023/05/20 01:25:58;;;;;;;;;;;13.80;99.90;;;;;;5030885;28;20004;-39
2023/05/20 01:28:23;;;;;;;;;;;13.80;99.90;;;;;;5031211;28;19952;-39
2023/05/20 01:30:51;;;;;;;;;;;13.80;99.90;;;;;;5029949;28;19909;-39
2023/05/20 01:33:17;;;;;;;;;;;13.80;99.90;;;;;;5031155;28;20000;-40
2023/05/20 01:35:43;;;;;;;;;;;13.80;99.90;;;;;;5030989;28;19909;-39
2023/05/20 01:38:08;;;;;;;;;;;13.80;99.90;;;;;;5030943;28;19916;-40
2023/05/20 01:40:34;;;;;;;;;;;13.80;99.90;;;;;;5030880;28;19908;-41
2023/05/20 01:43:01;;;;;;;;;;;13.80;99.90;;;;;;5031758;28;19916;-40
2023/05/20 01:45:27;;;;;;;;;;;13.80;99.90;;;;;;5031100;28;19944;-40
2023/05/20 01:47:52;;;;;;;;;;;13.80;99.90;;;;;;5030505;28;19963;-39
2023/05/20 01:50:18;;;;;;;;;;;13.80;99.90;;;;;;5031072;28;19905;-40
2023/05/20 01:52:43;;;;;;;;;;;13.80;99.90;;;;;;5031119;28;19905;-39
2023/05/20 01:55:09;;;;;;;;;;;13.80;99.90;;;;;;5030967;28;19967;-40
2023/05/20 01:57:34;;;;;;;;;;;13.80;99.90;;;;;;5030434;28;19905;-39
2023/05/20 02:00:00;;;;;;;;;;;13.90;99.90;;;;;;5031124;28;20333;-40
2023/05/20 02:02:25;;;;;;;;;;;13.90;99.90;;;;;;5030875;28;19909;-40
2023/05/20 02:04:52;;;;;;;;;;;13.90;99.90;;;;;;5030892;28;20305;-40
2023/05/20 02:07:18;;;;;;;;;;;13.90;99.90;;;;;;5030504;28;19967;-38
2023/05/20 02:09:44;;;;;;;;;;;13.90;99.90;;;;;;5031066;28;20359;-39
2023/05/20 02:12:15;;;;;;;;;;;13.90;99.90;;;;;;5031851;28;19984;-40
2023/05/20 02:14:41;;;;;;;;;;;13.90;99.90;;;;;;5034440;28;19905;-40
2023/05/20 02:17:06;;;;;;;;;;;13.90;99.90;;;;;;5033711;28;20354;-39
2023/05/20 02:19:32;;;;;;;;;;;13.90;99.90;;;;;;5034298;28;20412;-41
2023/05/20 02:21:57;;;;;;;;;;;13.80;99.90;;;;;;5034388;28;19913;-38
2023/05/20 02:24:23;;;;;;;;;;;13.90;99.90;;;;;;5034313;28;19916;-39
2023/05/20 02:26:50;;;;;;;;;;;13.90;99.90;;;;;;5033638;28;20449;-40
2023/05/20 02:29:15;;;;;;;;;;;13.90;99.90;;;;;;5034267;28;20286;-39
2023/05/20 02:31:41;;;;;;;;;;;13.80;99.90;;;;;;5033924;28;19905;-39
2023/05/20 02:34:07;;;;;;;;;;;13.90;99.90;;;;;;5034073;28;19912;-40
2023/05/20 02:36:32;;;;;;;;;;;13.90;99.90;;;;;;5033460;28;19905;-39
2023/05/20 02:38:59;;;;;;;;;;;13.90;99.90;;;;;;5033962;28;19988;-39
2023/05/20 02:41:25;;;;;;;;;;;13.90;99.90;;;;;;5033681;28;19940;-38
2023/05/20 02:43:50;;;;;;;;;;;13.80;99.90;;;;;;5033911;28;19905;-40
2023/05/20 02:46:18;;;;;;;;;;;13.80;99.90;;;;;;5033309;28;19968;-39
2023/05/20 02:48:44;;;;;;;;;;;13.80;99.90;;;;;;5033864;28;19963;-40
2023/05/20 02:51:10;;;;;;;;;;;13.80;99.90;;;;;;5033681;28;19940;-38
2023/05/20 02:53:35;;;;;;;;;;;13.80;99.90;;;;;;5033768;28;19994;-38
2023/05/20 02:56:02;;;;;;;;;;;13.80;99.90;;;;;;5033275;28;20510;-40
2023/05/20 02:58:28;;;;;;;;;;;13.80;99.90;;;;;;5033571;28;19912;-39
2023/05/20 03:00:53;;;;;;;;;;;13.80;99.90;;;;;;5033386;28;20310;-39
2023/05/20 03:03:19;;;;;;;;;;;13.80;99.90;;;;;;5033528;28;19996;-40
2023/05/20 03:05:45;;;;;;;;;;;13.80;99.90;;;;;;5033248;28;20212;-41
2023/05/20 03:08:10;;;;;;;;;;;13.80;99.90;;;;;;5033112;28;19963;-40
2023/05/20 03:10:39;;;;;;;;;;;13.80;99.90;;;;;;5033354;28;19951;-39
2023/05/20 03:13:09;;;;;;;;;;;13.80;99.90;;;;;;5033330;28;19943;-39
2023/05/20 03:15:36;;;;;;;;;;;13.80;99.90;;;;;;5033232;28;19908;-40
2023/05/20 03:18:01;;;;;;;;;;;13.80;99.90;;;;;;5032779;28;19916;-39
2023/05/20 03:20:28;;;;;;;;;;;13.80;99.90;;;;;;5033102;28;19909;-42
2023/05/20 03:22:54;;;;;;;;;;;13.80;99.90;;;;;;5031989;28;20373;-39
2023/05/20 03:25:21;;;;;;;;;;;13.80;99.90;;;;;;5033170;28;19940;-39
2023/05/20 03:27:46;;;;;;;;;;;13.80;99.90;;;;;;5032300;28;20336;-38
2023/05/20 03:30:12;;;;;;;;;;;13.80;99.90;;;;;;5032898;28;19905;-39
2023/05/20 03:32:38;;;;;;;;;;;13.80;99.90;;;;;;5032922;28;20410;-40
2023/05/20 03:35:04;;;;;;;;;;;13.80;99.90;;;;;;5032875;28;20000;-38
2023/05/20 03:37:30;;;;;;;;;;;13.80;99.90;;;;;;5032245;28;19956;-39
2023/05/20 03:39:55;;;;;;;;;;;13.80;99.90;;;;;;5032817;28;19951;-39
2023/05/20 03:42:21;;;;;;;;;;;13.80;99.90;;;;;;5032592;28;20351;-38
2023/05/20 03:44:46;;;;;;;;;;;13.80;99.90;;;;;;5032708;28;19905;-38
2023/05/20 03:47:11;;;;;;;;;;;13.80;99.90;;;;;;5032195;28;19909;-39
2023/05/20 03:49:39;;;;;;;;;;;13.80;99.90;;;;;;5032572;28;20058;-40
2023/05/20 03:52:04;;;;;;;;;;;13.80;99.90;;;;;;5032518;28;19951;-39
2023/05/20 03:54:30;;;;;;;;;;;13.80;99.90;;;;;;5032523;28;19991;-41
2023/05/20 03:56:55;;;;;;;;;;;13.80;99.90;;;;;;5032026;28;19912;-39
2023/05/20 03:59:21;;;;;;;;;;;13.80;99.90;;;;;;5032404;28;19916;-38
2023/05/20 04:01:47;;;;;;;;;;;13.80;99.90;;;;;;5032326;28;19909;-39
2023/05/20 04:04:12;;;;;;;;;;;13.80;99.90;;;;;;5032356;28;19905;-40
2023/05/20 04:06:39;;;;;;;;;;;13.80;99.90;;;;;;5031798;28;20424;-40
2023/05/20 04:09:04;;;;;;;;;;;13.80;99.90;;;;;;5032260;28;20354;-40
2023/05/20 04:11:30;;;;;;;;;;;13.80;99.90;;;;;;5032248;28;20001;-38
2023/05/20 04:13:57;;;;;;;;;;;13.80;99.90;;;;;;5030827;28;19945;-39
2023/05/20 04:16:23;;;;;;;;;;;13.80;99.90;;;;;;5031829;28;19905;-39
2023/05/20 04:18:49;;;;;;;;;;;13.80;99.90;;;;;;5032105;28;19951;-38
2023/05/20 04:21:15;;;;;;;;;;;13.80;99.90;;;;;;5032039;28;20546;-40
2023/05/20 04:23:40;;;;;;;;;;;13.80;99.90;;;;;;5032096;28;19905;-39
2023/05/20 04:26:06;;;;;;;;;;;13.80;99.90;;;;;;5031452;28;19905;-39
2023/05/20 04:28:31;;;;;;;;;;;13.80;99.90;;;;;;5031851;28;19908;-39
2023/05/20 04:31:03;;;;;;;;;;;13.80;99.90;;;;;;5031813;28;19912;-40
2023/05/20 04:33:29;;;;;;;;;;;13.80;99.90;;;;;;5031774;28;19912;-38
2023/05/20 04:35:57;;;;;;;;;;;13.80;99.90;;;;;;5031625;28;19905;-39
2023/05/20 04:38:29;;;;;;;;;;;13.80;99.90;;;;;;5032144;28;19905;-38
2023/05/20 04:40:56;;;;;;;;;;;13.80;99.90;;;;;;5031495;28;19967;-39
2023/05/20 04:43:23;;;;;;;;;;;13.80;99.90;;;;;;5032003;28;20046;-40
2023/05/20 04:45:49;;;;;;;;;;;13.70;99.90;;;;;;5031222;28;19917;-39
2023/05/20 04:48:14;;;;;;;;;;;13.80;99.90;;;;;;5031564;28;19905;-39
2023/05/20 04:50:40;;;;;;;;;;;13.80;99.90;;;;;;5031647;28;19911;-42
2023/05/20 04:53:06;;;;;;;;;;;13.80;99.90;;;;;;5031699;28;20417;-42
2023/05/20 04:55:32;;;;;;;;;;;13.80;99.90;;;;;;5031649;28;19913;-40
2023/05/20 04:57:57;;;;;;;;;;;13.70;99.90;;;;;;5031106;28;19905;-38
2023/05/20 05:00:23;;;;;;;;;;;13.80;99.90;;;;;;5031617;28;19905;-39
2023/05/20 05:02:49;;;;;;;;;;;13.80;99.90;;;;;;5030141;28;19991;-39
2023/05/20 05:05:14;;;;;;;;;;;13.80;99.90;;;;;;5031613;28;19927;-38
2023/05/20 05:07:40;;;;;;;;;;;13.80;99.90;;;;;;5030912;28;20362;-39
2023/05/20 05:10:06;;;;;;;;;;;13.80;99.90;;;;;;5031344;28;19905;-40
2023/05/20 05:12:31;;;;;;;;;;;13.80;99.90;;;;;;5031454;28;20381;-41
2023/05/20 05:14:57;;;;;;;;;;;13.80;99.90;;;;;;5031452;28;20027;-39
2023/05/20 05:17:23;;;;;;;;;;;13.80;99.90;;;;;;5030887;28;20232;-39
2023/05/20 05:19:48;;;;;;;;;;;13.80;99.90;;;;;;5031325;28;19988;-40
2023/05/20 05:22:14;;;;;;;;;;;13.80;99.90;;;;;;5031314;28;19916;-38
2023/05/20 05:24:39;;;;;;;;;;;13.80;99.90;;;;;;5031179;28;20377;-39
2023/05/20 05:27:05;;;;;;;;;;;13.80;99.90;;;;;;5030822;28;19905;-38
2023/05/20 05:29:30;;;;;;;;;;;13.80;99.90;;;;;;5031243;28;19905;-38
2023/05/20 05:31:56;;;;;;;;;;;13.80;99.90;;;;;;5031148;28;19952;-39
2023/05/20 05:34:21;;;;;;;;;;;13.80;99.90;;;;;;5031223;28;19911;-40
2023/05/20 05:36:47;;;;;;;;;;;13.80;99.90;;;;;;5030674;28;20412;-40
2023/05/20 05:39:12;;;;;;;;;;;13.90;99.90;;;;;;5031084;28;20285;-39
2023/05/20 05:41:38;;;;;;;;;;;13.90;99.90;;;;;;5030978;28;20262;-42
2023/05/20 05:44:03;;;;;;;;;;;13.90;99.90;;;;;;5031377;28;19917;-39
2023/05/20 05:46:30;;;;;;;;;;;13.90;99.90;;;;;;5031973;28;19912;-39
2023/05/20 05:48:57;;;;;;;;;;;14.00;99.90;;;;;;5035015;28;19905;-38
2023/05/20 05:51:24;;;;;;;;;;;14.00;99.90;;;;;;5035135;28;19905;-39
2023/05/20 05:53:49;;;;;;;;;;;14.00;99.90;;;;;;5034682;28;19995;-38
2023/05/20 05:56:15;;;;;;;;;;;14.00;99.90;;;;;;5034269;28;19959;-39
2023/05/20 05:58:40;;;;;;;;;;;14.00;99.90;;;;;;5034741;28;19906;-38
2023/05/20 06:01:06;;;;;;;;;;;14.00;99.90;;;;;;5034602;28;19932;-38
2023/05/20 06:03:31;;;;;;;;;;;14.00;99.90;;;;;;5034773;28;19995;-39
2023/05/20 06:05:57;;;;;;;;;;;14.00;99.90;;;;;;5034243;28;19905;-39
2023/05/20 06:08:22;;;;;;;;;;;14.00;99.90;;;;;;5034337;28;20350;-38
2023/05/20 06:10:49;;;;;;;;;;;14.00;99.90;;;;;;5034455;28;19905;-39
2023/05/20 06:13:14;;;;;;;;;;;14.00;99.90;;;;;;5034531;28;19912;-40
2023/05/20 06:15:40;;;;;;;;;;;14.00;99.90;;;;;;5034336;28;20315;-39
2023/05/20 06:18:05;;;;;;;;;;;14.10;99.90;;;;;;5034402;28;20412;-39
2023/05/20 06:20:31;;;;;;;;;;;14.10;99.90;;;;;;5034350;28;19944;-39
2023/05/20 06:22:57;;;;;;;;;;;14.10;99.90;;;;;;5034118;28;20370;-39
2023/05/20 06:25:22;;;;;;;;;;;14.10;99.90;;;;;;5034222;28;19920;-40
2023/05/20 06:27:48;;;;;;;;;;;14.10;99.90;;;;;;5033979;28;20342;-39
2023/05/20 06:30:13;;;;;;;;;;;14.10;99.90;;;;;;5034233;28;19951;-41
2023/05/20 06:32:39;;;;;;;;;;;14.20;99.90;;;;;;5034192;28;20331;-40
2023/05/20 06:35:05;;;;;;;;;;;14.20;99.90;;;;;;5034077;28;19909;-39
2023/05/20 06:37:30;;;;;;;;;;;14.20;99.90;;;;;;5033466;28;19909;-40
2023/05/20 06:39:56;;;;;;;;;;;14.20;99.90;;;;;;5034199;28;19917;-38
2023/05/20 06:42:21;;;;;;;;;;;14.20;99.90;;;;;;5034076;28;20008;-39
2023/05/20 06:44:47;;;;;;;;;;;14.20;99.90;;;;;;5034011;28;19916;-39
2023/05/20 06:47:16;;;;;;;;;;;14.20;99.90;;;;;;5033439;28;20258;-40
2023/05/20 06:49:42;;;;;;;;;;;14.20;99.90;;;;;;5033726;28;19905;-39
2023/05/20 06:52:07;;;;;;;;;;;14.20;99.90;;;;;;5033717;28;19909;-39
2023/05/20 06:54:36;;;;;;;;;;;14.20;99.90;;;;;;5033751;28;20422;-42
2023/05/20 06:57:01;;;;;;;;;;;14.20;99.90;;;;;;5032985;28;19999;-40
2023/05/20 06:59:27;;;;;;;;;;;14.20;99.90;;;;;;5033685;28;19948;-39
2023/05/20 07:01:52;;;;;;;;;;;14.20;99.90;;;;;;5033535;28;20352;-40
2023/05/20 07:04:17;;;;;;;;;;;14.20;99.90;;;;;;5033626;28;19999;-39
2023/05/20 07:06:43;;;;;;;;;;;14.30;99.90;;;;;;5032808;28;19909;-39
2023/05/20 07:09:09;;;;;;;;;;;14.30;99.90;;;;;;5033454;28;20379;-40
2023/05/20 07:11:34;;;;;;;;;;;14.30;99.90;;;;;;5033275;28;19956;-39
2023/05/20 07:14:00;;;;;;;;;;;14.30;99.90;;;;;;5033441;28;19920;-40
2023/05/20 07:16:25;;;;;;;;;;;14.30;99.90;;;;;;5032734;28;19949;-41
2023/05/20 07:18:50;;;;;;;;;;;14.30;99.90;;;;;;5033259;28;19909;-41
2023/05/20 07:21:16;;;;;;;;;;;14.30;99.90;;;;;;5032885;28;19956;-39
2023/05/20 07:23:42;;;;;;;;;;;14.30;99.90;;;;;;5033139;28;19909;-39
2023/05/20 07:26:07;;;;;;;;;;;14.30;99.90;;;;;;5032551;28;19959;-39
2023/05/20 07:28:34;;;;;;;;;;;14.40;99.90;;;;;;5033033;28;19905;-39
2023/05/20 07:30:59;;;;;;;;;;;14.40;99.90;;;;;;5032870;28;20044;-39
2023/05/20 07:33:25;;;;;;;;;;;14.40;99.90;;;;;;5032974;28;20397;-39
2023/05/20 07:35:53;;;;;;;;;;;14.40;99.90;;;;;;5032476;28;19905;-39
2023/05/20 07:38:18;;;;;;;;;;;14.40;99.90;;;;;;5032737;28;20385;-39
2023/05/20 07:40:44;;;;;;;;;;;14.40;99.90;;;;;;5032581;28;19909;-37
2023/05/20 07:43:09;;;;;;;;;;;14.40;99.90;;;;;;5033273;28;19909;-40
2023/05/20 07:45:35;;;;;;;;;;;14.40;99.90;;;;;;5032667;28;19909;-40
2023/05/20 07:48:01;;;;;;;;;;;14.40;99.90;;;;;;5032222;28;19916;-40
2023/05/20 07:50:27;;;;;;;;;;;14.40;99.90;;;;;;5032430;28;20278;-39
2023/05/20 07:52:52;;;;;;;;;;;14.40;99.90;;;;;;5032573;28;20358;-39
2023/05/20 07:55:17;;;;;;;;;;;14.40;99.90;;;;;;5032720;28;20404;-40
2023/05/20 07:57:43;;;;;;;;;;;14.40;99.90;;;;;;5032009;28;19957;-40
2023/05/20 08:00:10;;;;;;;;;;;14.40;99.90;;;;;;5032442;28;20144;-40
2023/05/20 08:02:36;;;;;;;;;;;14.40;99.90;;;;;;5032369;28;20351;-39
2023/05/20 08:05:01;;;;;;;;;;;14.40;99.90;;;;;;5032383;28;19909;-41
2023/05/20 08:07:27;;;;;;;;;;;14.50;99.90;;;;;;5031928;28;20027;-39
2023/05/20 08:09:52;;;;;;;;;;;14.40;99.90;;;;;;5031678;28;20499;-39
2023/05/20 08:12:18;;;;;;;;;;;14.40;99.90;;;;;;5032080;28;19945;-39
2023/05/20 08:14:44;;;;;;;;;;;14.40;99.90;;;;;;5032232;28;20378;-40
2023/05/20 08:17:09;;;;;;;;;;;14.40;99.90;;;;;;5031618;28;19908;-40
2023/05/20 08:19:35;;;;;;;;;;;14.50;99.90;;;;;;5031978;28;19905;-43
2023/05/20 08:22:01;;;;;;;;;;;14.50;99.90;;;;;;5031943;28;19967;-41
2023/05/20 08:24:26;;;;;;;;;;;14.60;99.90;;;;;;5030945;28;19912;-43
2023/05/20 08:26:52;;;;;;;;;;;14.60;99.90;;;;;;5031716;28;19909;-41
2023/05/20 08:29:17;;;;;;;;;;;14.60;99.90;;;;;;5031761;28;19920;-42
2023/05/20 08:31:43;;;;;;;;;;;14.60;99.90;;;;;;5031891;28;19931;-41
2023/05/20 08:34:09;;;;;;;;;;;14.60;99.90;;;;;;5031854;28;19909;-41
2023/05/20 08:36:34;;;;;;;;;;;14.60;99.90;;;;;;5031170;28;19916;-41
2023/05/20 08:39:00;;;;;;;;;;;14.60;99.90;;;;;;5031814;28;19909;-41
2023/05/20 08:41:26;;;;;;;;;;;14.60;99.90;;;;;;5031472;28;19919;-43
2023/05/20 08:43:52;;;;;;;;;;;14.70;99.90;;;;;;5031729;28;19909;-42
2023/05/20 08:46:17;;;;;;;;;;;14.60;99.90;;;;;;5031161;28;19905;-41
2023/05/20 08:48:43;;;;;;;;;;;14.70;99.90;;;;;;5031596;28;20011;-42
2023/05/20 08:51:10;;;;;;;;;;;14.70;99.90;;;;;;5031626;28;20362;-41
2023/05/20 08:53:35;;;;;;;;;;;14.70;99.90;;;;;;5031574;28;19944;-41
2023/05/20 08:56:02;;;;;;;;;;;14.70;99.90;;;;;;5031107;28;19963;-40
2023/05/20 08:58:31;;;;;;;;;;;14.70;99.90;;;;;;5031544;28;19909;-42
2023/05/20 09:00:57;;;;;;;;;;;14.70;99.90;;;;;;5031778;28;20372;-40
2023/05/20 09:03:24;;;;;;;;;;;14.70;99.90;;;;;;5031447;28;19928;-42
2023/05/20 09:05:50;;;;;;;;;;;14.70;99.90;;;;;;5031067;28;20004;-41
2023/05/20 09:08:16;;;;;;;;;;;14.80;99.90;;;;;;5031301;28;19905;-42
2023/05/20 09:10:42;;;;;;;;;;;14.80;99.90;;;;;;5031338;28;19905;-41
2023/05/20 09:13:08;;;;;;;;;;;14.80;99.90;;;;;;5031357;28;19927;-41
2023/05/20 09:15:34;;;;;;;;;;;14.90;99.90;;;;;;5031394;28;20275;-41
2023/05/20 09:18:01;;;;;;;;;;;14.80;99.90;;;;;;5030701;28;20319;-40
2023/05/20 09:20:28;;;;;;;;;;;14.80;99.90;;;;;;5032518;28;20420;-40
2023/05/20 09:22:57;;;;;;;;;;;14.80;99.90;;;;;;5035404;28;19909;-42
2023/05/20 09:25:23;;;;;;;;;;;14.90;99.90;;;;;;5035510;28;19952;-41
2023/05/20 09:27:49;;;;;;;;;;;14.90;99.90;;;;;;5035013;28;19905;-41
2023/05/20 09:30:17;;;;;;;;;;;14.90;99.90;;;;;;5035314;28;20044;-41
2023/05/20 09:32:43;;;;;;;;;;;14.80;99.90;;;;;;5035137;28;19955;-42
2023/05/20 09:35:11;;;;;;;;;;;14.80;99.90;;;;;;5035123;28;19905;-42
2023/05/20 09:37:37;;;;;;;;;;;14.90;99.90;;;;;;5034643;28;19915;-40
2023/05/20 09:40:08;;;;;;;;;;;14.80;99.90;;;;;;5035062;28;19905;-40
2023/05/20 09:42:52;;;;;;;;;;;14.80;99.90;;;;;;5034892;28;20354;-40
2023/05/20 09:45:17;;;;;;;;;;;14.70;99.90;;;;;;5035505;28;19947;-39
2023/05/20 09:47:43;;;;;;;;;;;14.70;99.90;;;;;;5034872;28;20370;-41
2023/05/20 09:50:09;;;;;;;;;;;14.70;99.90;;;;;;5035012;28;19905;-40
2023/05/20 09:52:36;;;;;;;;;;;14.70;99.90;;;;;;5034927;28;20373;-40
2023/05/20 09:55:04;;;;;;;;;;;14.70;99.90;;;;;;5034831;28;19909;-40
2023/05/20 09:57:32;;;;;;;;;;;14.70;99.90;;;;;;5034157;28;20433;-40
2023/05/20 09:59:58;;;;;;;;;;;14.70;99.90;;;;;;5034762;28;19908;-40
2023/05/20 10:02:23;;;;;;;;;;;14.70;99.90;;;;;;5034671;28;20366;-40
2023/05/20 10:04:51;;;;;;;;;;;14.70;99.90;;;;;;5034803;28;19974;-39
2023/05/20 10:07:25;;;;;;;;;;;14.70;99.90;;;;;;5034153;28;19905;-40
2023/05/20 10:10:13;;;;;;;;;;;14.70;99.90;;;;;;5034982;28;19995;-40
2023/05/20 10:13:05;;;;;;;;;;;14.70;99.90;;;;;;5034487;28;19909;-41
2023/05/20 10:15:49;;;;;;;;;;;14.80;99.90;;;;;;5031315;28;19905;-40
2023/05/20 10:18:29;;;;;;;;;;;14.80;99.90;;;;;;5034255;28;20386;-40
2023/05/20 10:20:54;;;;;;;;;;;14.80;99.90;;;;;;5034350;28;19912;-40
2023/05/20 10:23:26;;;;;;;;;;;14.80;99.90;;;;;;5034265;28;19996;-40
2023/05/20 10:25:52;;;;;;;;;;;14.80;99.90;;;;;;5034273;28;19908;-39
2023/05/20 10:28:28;;;;;;;;;;;14.80;99.90;;;;;;5034005;28;20030;-40
2023/05/20 10:30:53;;;;;;;;;;;14.80;99.90;;;;;;5033990;28;19905;-40
2023/05/20 10:33:19;;;;;;;;;;;14.80;99.90;;;;;;5033543;28;19984;-39
2023/05/20 10:35:51;;;;;;;;;;;14.90;99.90;;;;;;5033848;28;20370;-40
2023/05/20 10:38:17;;;;;;;;;;;14.90;99.90;;;;;;5033875;28;19912;-40
2023/05/20 10:40:42;;;;;;;;;;;14.90;99.90;;;;;;5033718;28;19912;-39
2023/05/20 10:43:14;;;;;;;;;;;14.90;99.90;;;;;;5033996;28;19913;-40
2023/05/20 10:45:53;;;;;;;;;;;14.90;99.90;;;;;;5034038;28;20397;-39
2023/05/20 10:48:24;;;;;;;;;;;14.90;99.90;;;;;;5033724;28;20438;-40
2023/05/20 10:50:53;;;;;;;;;;;15.00;99.90;;;;;;5033708;28;19963;-39
2023/05/20 10:53:21;;;;;;;;;;;15.00;99.90;;;;;;5033767;28;19948;-40
2023/05/20 10:55:50;;;;;;;;;;;14.90;99.90;;;;;;5033569;28;19909;-40
2023/05/20 10:58:16;;;;;;;;;;;15.00;99.90;;;;;;5033894;28;20359;-40
2023/05/20 11:00:42;;;;;;;;;;;15.00;99.90;;;;;;5033564;28;19988;-40
2023/05/20 11:03:08;;;;;;;;;;;15.00;99.90;;;;;;5033880;28;19954;-40
2023/05/20 11:05:34;;;;;;;;;;;15.10;99.90;;;;;;5033534;28;19905;-39
2023/05/20 11:08:03;;;;;;;;;;;15.10;99.90;;;;;;5033474;28;19913;-40
2023/05/20 11:10:29;;;;;;;;;;;15.10;99.90;;;;;;5033228;28;19959;-40
2023/05/20 11:12:55;;;;;;;;;;;15.10;99.90;;;;;;5033308;28;19909;-39
2023/05/20 11:15:22;;;;;;;;;;;15.20;99.90;;;;;;5033248;28;19905;-40
2023/05/20 11:17:54;;;;;;;;;;;15.20;99.90;;;;;;5033023;28;20388;-40
2023/05/20 11:20:21;;;;;;;;;;;15.30;99.90;;;;;;5033224;28;20373;-40
2023/05/20 11:22:48;;;;;;;;;;;15.30;99.90;;;;;;5033121;28;19909;-40
2023/05/20 11:25:13;;;;;;;;;;;15.30;99.90;;;;;;5033594;28;19905;-40
2023/05/20 11:27:39;;;;;;;;;;;15.30;99.90;;;;;;5033386;28;19911;-40
2023/05/20 11:30:04;;;;;;;;;;;15.20;99.90;;;;;;5033121;28;20132;-39
2023/05/20 11:32:31;;;;;;;;;;;15.20;99.90;;;;;;5033059;28;19963;-41
2023/05/20 11:34:56;;;;;;;;;;;15.20;99.90;;;;;;5033210;28;19905;-40
2023/05/20 11:37:22;;;;;;;;;;;15.30;99.90;;;;;;5032249;28;19911;-41
2023/05/20 11:39:48;;;;;;;;;;;15.30;99.90;;;;;;5032766;28;19909;-40
2023/05/20 11:42:14;;;;;;;;;;;15.30;99.90;;;;;;5032510;28;20000;-40
2023/05/20 11:44:44;;;;;;;;;;;15.40;99.90;;;;;;5031920;28;20396;-40
2023/05/20 11:47:09;;;;;;;;;;;15.40;99.90;;;;;;5032189;28;19959;-39
2023/05/20 11:49:38;;;;;;;;;;;15.40;99.90;;;;;;5032673;28;19909;-40
2023/05/20 11:52:06;;;;;;;;;;;15.30;99.90;;;;;;5032302;28;20003;-40
2023/05/20 11:54:34;;;;;;;;;;;15.30;99.90;;;;;;5032876;28;20243;-41
2023/05/20 11:57:00;;;;;;;;;;;15.30;99.90;;;;;;5032114;28;19916;-40
2023/05/20 11:59:25;;;;;;;;;;;15.30;99.90;;;;;;5032828;28;20302;-39
2023/05/20 12:01:51;;;;;;;;;;;15.30;99.90;;;;;;5032365;28;19913;-40
2023/05/20 12:04:17;;;;;;;;;;;15.30;99.90;;;;;;5032905;28;19904;-40
2023/05/20 12:06:42;;;;;;;;;;;15.30;99.90;;;;;;5032568;28;19975;-44
2023/05/20 12:09:09;;;;;;;;;;;15.30;99.90;;;;;;5032721;28;19996;-40
2023/05/20 12:11:35;;;;;;;;;;;15.30;99.90;;;;;;5032489;28;19917;-43
2023/05/20 12:14:01;;;;;;;;;;;15.40;99.90;;;;;;5032523;28;20313;-40
2023/05/20 12:16:27;;;;;;;;;;;15.40;99.90;;;;;;5031637;28;19905;-39
2023/05/20 12:18:53;;;;;;;;;;;15.40;99.90;;;;;;5032247;28;19905;-39
2023/05/20 12:21:18;;;;;;;;;;;15.40;99.90;;;;;;5032040;28;19909;-40
2023/05/20 12:23:44;;;;;;;;;;;15.40;99.90;;;;;;5032077;28;19905;-40
2023/05/20 12:26:09;;;;;;;;;;;15.40;99.90;;;;;;5031463;28;19915;-40
2023/05/20 12:28:35;;;;;;;;;;;15.50;99.90;;;;;;5031961;28;19952;-40
2023/05/20 12:31:01;;;;;;;;;;;15.50;99.90;;;;;;5030758;28;19919;-40
2023/05/20 12:33:26;;;;;;;;;;;15.50;99.90;;;;;;5031820;28;19912;-40
2023/05/20 12:35:52;;;;;;;;;;;15.60;99.90;;;;;;5031368;28;19920;-40
2023/05/20 12:38:17;;;;;;;;;;;15.50;99.90;;;;;;5032043;28;19905;-40
2023/05/20 12:40:43;;;;;;;;;;;15.50;99.90;;;;;;5031569;28;20378;-40
2023/05/20 12:43:08;;;;;;;;;;;15.60;99.90;;;;;;5031633;28;19909;-39
2023/05/20 12:45:34;;;;;;;;;;;15.60;99.90;;;;;;5031743;28;19927;-40
2023/05/20 12:48:00;;;;;;;;;;;15.60;99.90;;;;;;5031177;28;19948;-40
2023/05/20 12:50:26;;;;;;;;;;;15.60;99.90;;;;;;5031649;28;19905;-42
2023/05/20 12:52:51;;;;;;;;;;;15.60;99.90;;;;;;5031625;28;19909;-40
2023/05/20 12:55:17;;;;;;;;;;;15.60;99.90;;;;;;5031320;28;20448;-40
2023/05/20 12:57:43;;;;;;;;;;;15.60;99.90;;;;;;5031034;28;19913;-39
2023/05/20 13:00:09;;;;;;;;;;;15.60;99.90;;;;;;5031708;28;19912;-40
2023/05/20 13:02:35;;;;;;;;;;;15.70;99.90;;;;;;5031350;28;19935;-39
2023/05/20 13:05:00;;;;;;;;;;;15.60;99.90;;;;;;5031684;28;19917;-41
2023/05/20 13:07:26;;;;;;;;;;;15.60;99.90;;;;;;5031785;28;19932;-39
2023/05/20 13:09:52;;;;;;;;;;;15.60;99.90;;;;;;5031460;28;19909;-39
2023/05/20 13:12:17;;;;;;;;;;;15.60;99.90;;;;;;5031348;28;19948;-39
2023/05/20 13:14:43;;;;;;;;;;;15.50;99.90;;;;;;5031485;28;19916;-39
2023/05/20 13:17:08;;;;;;;;;;;15.60;99.90;;;;;;5030880;28;19916;-40
2023/05/20 13:19:34;;;;;;;;;;;15.70;99.90;;;;;;5031396;28;19909;-40
2023/05/20 13:21:59;;;;;;;;;;;15.70;99.90;;;;;;5031650;28;20343;-39
2023/05/20 13:24:26;;;;;;;;;;;15.70;99.90;;;;;;5031337;28;19948;-40
2023/05/20 13:26:51;;;;;;;;;;;15.70;99.90;;;;;;5030784;28;19958;-41
2023/05/20 13:29:17;;;;;;;;;;;15.60;99.90;;;;;;5031079;28;20149;-39
2023/05/20 13:31:42;;;;;;;;;;;15.60;99.90;;;;;;5031778;28;19912;-40
2023/05/20 13:34:08;;;;;;;;;;;15.60;99.90;;;;;;5031101;28;19905;-40
2023/05/20 13:36:33;;;;;;;;;;;15.60;99.90;;;;;;5030676;28;19905;-40
2023/05/20 13:38:59;;;;;;;;;;;15.70;99.90;;;;;;5031090;28;19916;-39
2023/05/20 13:41:25;;;;;;;;;;;15.80;99.90;;;;;;5031452;28;20279;-46
2023/05/20 13:43:51;;;;;;;;;;;16.00;99.90;;;;;;5031201;28;20020;-41
2023/05/20 13:46:16;;;;;;;;;;;16.10;99.90;;;;;;5030659;28;19967;-41
2023/05/20 13:48:42;;;;;;;;;;;16.20;99.90;;;;;;5030996;28;20289;-41
2023/05/20 13:51:07;;;;;;;;;;;16.20;99.90;;;;;;5031092;28;19912;-41
2023/05/20 13:53:33;;;;;;;;;;;16.10;99.90;;;;;;5031284;28;20333;-41
2023/05/20 13:55:59;;;;;;;;;;;16.10;99.90;;;;;;5030657;28;19909;-41
2023/05/20 13:58:24;;;;;;;;;;;16.10;99.90;;;;;;5031048;28;19996;-45
2023/05/20 14:00:50;;;;;;;;;;;16.10;99.90;;;;;;5030975;28;19924;-41
2023/05/20 14:03:16;;;;;;;;;;;16.10;99.90;;;;;;5030780;28;20000;-41
2023/05/20 14:05:41;;;;;;;;;;;16.10;99.90;;;;;;5030858;28;20422;-41
2023/05/20 14:08:07;;;;;;;;;;;16.10;99.90;;;;;;5032752;28;19927;-41
2023/05/20 14:10:32;;;;;;;;;;;16.10;99.90;;;;;;5034520;28;20275;-41